Terminal Aerodrome Forecast
Issued by NWS

Home | Current Version | Previous Version | Text Only | Print | Product List | Glossary On
Versions: 1 2 3 4 5 6 7 8 9 10 11 12 13 14 15
000
FTUS44 KMAF 210500
TAFHOB
TAF
KHOB 210536Z 2106/2206 15009G19KT P6SM BKN250
     FM211600 15012G22KT P6SM SCT050 BKN250
     FM220200 17008KT P6SM FEW045 BKN200=

USA.gov is the U.S. government's official web portal to all federal, state and local government web resources and services.